Windsor, North Dakota
Current Conditions -  °F | °C
As of 11:56 PM on Monday 26 Jan 2015 (Local Time) from KJMS Reporting Station
Clear Clear  
Wind Chill: 26°   Ceiling: Unl
Heat Index: 26°   Visibility: 9mi
Dew Point: 25°   Wind: 3mph
Humidity: 96%   Direction: 190°S
Pressure: 29.98"   Gusts: NA
Location:  46.8919°N, 99.0696°W
Report Text: KJMS 270556Z AUTO 19003KT 9SM CLR M03/M04 A2998 RMK AO2 SLP171 I6001 T10331039 10011 21039 400501039 51002
Loading
Personal Weather Stations






























Interactive Weather Map New forecast layout! Learn more

10-Day Weather Forecast

Advertisements
Track Severe Weather on mobile